Time;durP1;ratioP1;P1;durP2;ratioP2;P2;SDS_P1;SDS_P2;PMS_P1;PMS_P2;Temp;Humidity;BMP_temperature;BMP_pressure;BME280_temperature;BME280_humidity;BME280_pressure;Samples;Min_cycle;Max_cycle;Signal;HPM_P1;HPM_P2
2022/11/19 00:02:53;;;;;;;9.38;4.93;;;;;;;;;;6269021;28;20123;-63
2022/11/19 00:05:55;;;;;;;12.38;5.65;;;;;;;;;;6249534;28;20358;-64
2022/11/19 00:08:57;;;;;;;8.90;5.47;;;;;;;;;;6258192;28;20068;-63
2022/11/19 00:15:19;;;;;;;8.30;5.25;;;;;;;;;;6260937;28;20053;-63
2022/11/19 00:18:20;;;;;;;8.70;5.15;;;;;;;;;;6264255;28;20095;-63
2022/11/19 00:21:22;;;;;;;7.53;5.10;;;;;;;;;;6265225;28;20053;-63
2022/11/19 00:24:27;;;;;;;9.07;6.47;;;;;;;;;;6261429;28;20046;-63
2022/11/19 00:27:29;;;;;;;11.32;5.93;;;;;;;;;;6269548;28;20060;-63
2022/11/19 00:30:32;;;;;;;8.45;5.90;;;;;;;;;;6267268;28;20368;-63
2022/11/19 00:33:33;;;;;;;10.67;6.47;;;;;;;;;;6268208;28;20048;-63
2022/11/19 00:36:35;;;;;;;9.77;6.60;;;;;;;;;;6267160;28;20055;-63
2022/11/19 00:39:37;;;;;;;9.40;5.90;;;;;;;;;;6269131;28;20186;-63
2022/11/19 00:43:45;;;;;;;7.80;5.53;;;;;;;;;;6265518;28;20325;-63
2022/11/19 00:46:02;;;;;;;9.48;5.45;;;;;;;;;;6266030;28;20057;-63
2022/11/19 00:49:04;;;;;;;7.88;5.88;;;;;;;;;;6268874;28;20057;-63
2022/11/19 00:52:05;;;;;;;11.18;6.45;;;;;;;;;;6262823;28;20068;-64
2022/11/19 00:55:08;;;;;;;9.25;6.43;;;;;;;;;;6265207;28;20055;-63
2022/11/19 00:58:10;;;;;;;8.55;6.63;;;;;;;;;;6267355;28;20064;-63
2022/11/19 01:01:14;;;;;;;8.93;6.63;;;;;;;;;;6266480;28;20055;-63
2022/11/19 01:04:15;;;;;;;12.10;7.47;;;;;;;;;;6267611;28;20112;-63
2022/11/19 01:07:17;;;;;;;12.77;7.97;;;;;;;;;;6268625;28;20048;-63
2022/11/19 01:10:19;;;;;;;13.95;7.93;;;;;;;;;;6263592;28;20098;-63
2022/11/19 01:13:36;;;;;;;10.57;7.57;;;;;;;;;;6264446;28;20055;-63
2022/11/19 01:16:40;;;;;;;11.27;7.50;;;;;;;;;;6259502;28;20080;-63
2022/11/19 01:19:42;;;;;;;11.18;7.65;;;;;;;;;;6261130;28;20054;-63
2022/11/19 01:22:45;;;;;;;12.23;8.57;;;;;;;;;;6266404;28;20263;-63
2022/11/19 01:25:46;;;;;;;14.43;8.98;;;;;;;;;;6259094;28;20046;-63
2022/11/19 01:28:48;;;;;;;15.95;9.75;;;;;;;;;;6265486;28;20064;-63
2022/11/19 01:31:52;;;;;;;17.15;9.20;;;;;;;;;;6264099;28;20128;-63
2022/11/19 01:34:53;;;;;;;14.43;8.93;;;;;;;;;;6267341;28;20547;-63
2022/11/19 01:37:55;;;;;;;13.80;9.63;;;;;;;;;;6265790;28;20059;-63
2022/11/19 01:40:57;;;;;;;16.58;10.45;;;;;;;;;;6262652;28;20061;-63
2022/11/19 01:44:00;;;;;;;16.17;10.25;;;;;;;;;;6262235;28;20045;-63
2022/11/19 01:47:03;;;;;;;14.93;10.70;;;;;;;;;;6271898;28;20056;-63
2022/11/19 01:50:06;;;;;;;13.75;10.13;;;;;;;;;;6266851;28;20051;-63
2022/11/19 01:53:08;;;;;;;15.20;10.38;;;;;;;;;;6259605;28;20072;-63
2022/11/19 01:56:10;;;;;;;16.20;11.05;;;;;;;;;;6261614;28;20156;-63
2022/11/19 01:59:15;;;;;;;16.27;10.57;;;;;;;;;;6272474;28;20048;-63
2022/11/19 02:02:21;;;;;;;16.92;10.25;;;;;;;;;;6265619;28;20216;-63
2022/11/19 02:05:23;;;;;;;15.00;10.30;;;;;;;;;;6270130;28;20413;-63
2022/11/19 02:08:42;;;;;;;16.73;10.35;;;;;;;;;;6271515;28;20053;-63
2022/11/19 02:12:12;;;;;;;18.33;10.77;;;;;;;;;;6270214;28;20059;-63
2022/11/19 02:15:23;;;;;;;15.02;10.32;;;;;;;;;;6259091;28;20048;-63
2022/11/19 02:18:36;;;;;;;21.02;11.20;;;;;;;;;;6268527;28;20693;-64
2022/11/19 02:21:43;;;;;;;16.55;10.77;;;;;;;;;;6270913;28;20051;-63
2022/11/19 02:24:52;;;;;;;16.58;10.60;;;;;;;;;;6268401;28;20083;-63
2022/11/19 02:28:14;;;;;;;15.27;10.90;;;;;;;;;;6263326;28;20057;-64
2022/11/19 02:31:20;;;;;;;16.20;10.70;;;;;;;;;;6254986;28;20277;-63
2022/11/19 02:34:27;;;;;;;17.30;11.95;;;;;;;;;;6266795;28;20049;-63
2022/11/19 02:37:31;;;;;;;16.30;10.82;;;;;;;;;;6270639;28;20057;-63
2022/11/19 02:40:37;;;;;;;18.13;11.98;;;;;;;;;;6254491;28;20328;-63
2022/11/19 02:43:41;;;;;;;19.73;12.50;;;;;;;;;;6263147;28;20057;-62
2022/11/19 02:46:45;;;;;;;17.23;12.03;;;;;;;;;;6268718;28;20291;-62
2022/11/19 02:49:48;;;;;;;19.23;12.32;;;;;;;;;;6264911;28;20101;-62
2022/11/19 02:52:50;;;;;;;18.30;12.07;;;;;;;;;;6262029;28;20100;-61
2022/11/19 03:06:00;;;;;;;19.25;12.88;;;;;;;;;;6270525;28;20053;-62
2022/11/19 03:09:03;;;;;;;18.92;12.02;;;;;;;;;;6276100;28;20375;-62
2022/11/19 03:12:11;;;;;;;18.52;12.40;;;;;;;;;;6267130;28;20346;-62
2022/11/19 03:18:49;;;;;;;15.18;10.45;;;;;;;;;;6272772;28;20048;-63
2022/11/19 03:21:55;;;;;;;15.05;10.07;;;;;;;;;;6270998;28;20229;-63
2022/11/19 03:24:58;;;;;;;16.10;10.43;;;;;;;;;;6268433;28;20264;-63
2022/11/19 03:28:03;;;;;;;14.55;9.90;;;;;;;;;;6266137;28;20049;-62
2022/11/19 03:31:04;;;;;;;;;;;;;;;;;;6272527;28;20080;-63
2022/11/19 03:34:10;;;;;;;13.82;8.80;;;;;;;;;;6263611;28;19917;-63
2022/11/19 03:37:13;;;;;;;13.13;8.52;;;;;;;;;;6276697;28;20057;-62
2022/11/19 03:40:16;;;;;;;12.88;7.50;;;;;;;;;;6273066;28;20114;-61
2022/11/19 03:43:20;;;;;;;11.35;6.53;;;;;;;;;;6276332;28;20067;-61
2022/11/19 03:46:22;;;;;;;10.15;5.93;;;;;;;;;;6275245;28;20045;-61
2022/11/19 03:49:30;;;;;;;7.35;4.75;;;;;;;;;;6276811;28;20057;-63
2022/11/19 03:52:32;;;;;;;7.45;3.97;;;;;;;;;;6265892;28;20053;-62
2022/11/19 03:55:35;;;;;;;4.63;3.03;;;;;;;;;;6275466;28;20064;-62
2022/11/19 03:58:38;;;;;;;4.60;3.03;;;;;;;;;;6273057;28;20053;-63
2022/11/19 04:01:40;;;;;;;5.72;3.50;;;;;;;;;;6274243;28;20065;-62
2022/11/19 04:04:43;;;;;;;6.55;3.80;;;;;;;;;;6269738;28;20311;-62
2022/11/19 04:07:45;;;;;;;5.45;3.85;;;;;;;;;;6272175;28;20143;-62
2022/11/19 04:10:47;;;;;;;5.97;4.10;;;;;;;;;;6276194;28;20073;-62
2022/11/19 04:13:48;;;;;;;8.63;4.28;;;;;;;;;;6269034;28;20084;-61
2022/11/19 04:16:50;;;;;;;6.57;4.03;;;;;;;;;;6268784;28;20056;-61
2022/11/19 04:19:53;;;;;;;7.15;4.00;;;;;;;;;;6270208;28;20256;-61
2022/11/19 04:22:54;;;;;;;7.22;4.22;;;;;;;;;;6260490;28;20111;-61
2022/11/19 04:25:56;;;;;;;6.90;3.90;;;;;;;;;;6268408;28;20060;-62
2022/11/19 04:28:58;;;;;;;6.82;4.18;;;;;;;;;;6270723;28;20053;-61
2022/11/19 04:31:59;;;;;;;9.43;4.13;;;;;;;;;;6267533;28;20057;-61
2022/11/19 04:35:02;;;;;;;6.63;4.22;;;;;;;;;;6259453;28;20257;-61
2022/11/19 04:38:04;;;;;;;7.32;3.97;;;;;;;;;;6263991;28;20057;-62
2022/11/19 04:41:06;;;;;;;6.82;3.90;;;;;;;;;;6265642;28;20332;-61
2022/11/19 04:44:07;;;;;;;4.25;2.75;;;;;;;;;;6269003;28;20045;-61
2022/11/19 04:47:09;;;;;;;5.60;3.45;;;;;;;;;;6267682;28;20341;-62
2022/11/19 04:50:13;;;;;;;5.18;3.35;;;;;;;;;;6266225;28;20218;-62
2022/11/19 04:53:14;;;;;;;7.97;4.15;;;;;;;;;;6266697;28;20053;-62
2022/11/19 04:56:16;;;;;;;8.63;5.35;;;;;;;;;;6268300;28;20060;-62
2022/11/19 04:59:18;;;;;;;8.95;4.70;;;;;;;;;;6265838;28;20041;-62
2022/11/19 05:02:19;;;;;;;9.65;5.82;;;;;;;;;;6265197;28;20049;-61
2022/11/19 05:05:22;;;;;;;10.20;6.13;;;;;;;;;;6265231;28;20060;-62
2022/11/19 05:08:24;;;;;;;12.20;7.63;;;;;;;;;;6258567;28;20115;-62
2022/11/19 05:11:26;;;;;;;13.95;7.55;;;;;;;;;;6266368;28;20134;-62
2022/11/19 05:14:27;;;;;;;11.57;7.35;;;;;;;;;;6266226;28;20053;-62
2022/11/19 05:17:29;;;;;;;12.68;7.47;;;;;;;;;;6265240;28;20164;-61
2022/11/19 05:20:33;;;;;;;11.63;6.95;;;;;;;;;;6266836;28;20056;-62
2022/11/19 05:23:35;;;;;;;10.30;7.10;;;;;;;;;;6265190;28;20064;-62
2022/11/19 05:26:36;;;;;;;11.52;6.88;;;;;;;;;;6267474;28;20138;-61
2022/11/19 05:29:38;;;;;;;10.15;6.32;;;;;;;;;;6267491;28;20052;-61
2022/11/19 05:32:40;;;;;;;13.02;6.90;;;;;;;;;;6266695;28;20053;-62
2022/11/19 05:35:43;;;;;;;11.82;7.47;;;;;;;;;;6268366;28;20056;-61
2022/11/19 05:38:44;;;;;;;8.65;6.47;;;;;;;;;;6264049;28;20057;-62
2022/11/19 05:41:46;;;;;;;11.27;7.13;;;;;;;;;;6265896;28;20053;-61
2022/11/19 05:44:48;;;;;;;8.50;6.15;;;;;;;;;;6265535;28;20325;-62
2022/11/19 05:47:54;;;;;;;9.32;6.57;;;;;;;;;;6264794;28;20053;-61
2022/11/19 05:50:57;;;;;;;10.45;6.60;;;;;;;;;;6265607;28;20853;-61
2022/11/19 05:53:59;;;;;;;9.63;5.88;;;;;;;;;;6265879;28;20055;-62
2022/11/19 05:57:00;;;;;;;10.30;6.03;;;;;;;;;;6264480;28;20053;-62
2022/11/19 06:00:02;;;;;;;9.48;5.68;;;;;;;;;;6266844;28;20082;-61
2022/11/19 06:03:04;;;;;;;13.65;7.43;;;;;;;;;;6265489;28;20056;-61
2022/11/19 06:06:08;;;;;;;8.80;5.85;;;;;;;;;;6263705;28;20052;-61
2022/11/19 06:09:09;;;;;;;8.15;5.40;;;;;;;;;;6267222;28;20052;-62
2022/11/19 06:12:11;;;;;;;8.55;5.68;;;;;;;;;;6265385;28;20383;-61
2022/11/19 06:15:13;;;;;;;9.45;5.47;;;;;;;;;;6267557;28;20048;-62
2022/11/19 06:18:15;;;;;;;11.32;6.28;;;;;;;;;;6262526;28;20329;-62
2022/11/19 06:21:18;;;;;;;9.02;5.88;;;;;;;;;;6266975;28;20249;-62
2022/11/19 06:24:20;;;;;;;9.30;6.20;;;;;;;;;;6266068;28;20057;-62
2022/11/19 06:27:21;;;;;;;10.02;5.95;;;;;;;;;;6269259;28;20052;-62
2022/11/19 06:30:23;;;;;;;10.82;6.60;;;;;;;;;;6264507;28;20053;-62
2022/11/19 06:33:24;;;;;;;7.93;5.53;;;;;;;;;;6270913;28;20049;-62
2022/11/19 06:36:28;;;;;;;13.88;6.97;;;;;;;;;;6267294;28;20072;-61
2022/11/19 06:39:29;;;;;;;10.32;6.03;;;;;;;;;;6265560;28;20057;-61
2022/11/19 06:42:37;;;;;;;11.60;6.30;;;;;;;;;;6266500;28;20052;-60
2022/11/19 06:45:38;;;;;;;10.48;5.95;;;;;;;;;;6266452;28;20069;-61
2022/11/19 06:48:40;;;;;;;8.70;5.97;;;;;;;;;;6268565;28;20224;-61
2022/11/19 06:51:43;;;;;;;9.52;5.85;;;;;;;;;;6265944;28;20053;-61
2022/11/19 06:54:45;;;;;;;8.48;5.22;;;;;;;;;;6266486;28;20057;-61
2022/11/19 06:57:47;;;;;;;9.85;5.70;;;;;;;;;;6270423;28;20045;-61
2022/11/19 07:00:48;;;;;;;9.43;5.40;;;;;;;;;;6262574;28;20045;-63
2022/11/19 07:03:50;;;;;;;9.32;5.65;;;;;;;;;;6270569;28;20045;-61
2022/11/19 07:06:53;;;;;;;11.68;5.75;;;;;;;;;;6264833;28;20399;-61
2022/11/19 07:09:54;;;;;;;8.27;5.97;;;;;;;;;;6271457;28;20057;-62
2022/11/19 07:12:56;;;;;;;9.82;5.50;;;;;;;;;;6266812;28;20284;-62
2022/11/19 07:15:58;;;;;;;8.13;5.00;;;;;;;;;;6267655;28;20276;-62
2022/11/19 07:19:00;;;;;;;9.43;5.32;;;;;;;;;;6270585;28;20057;-62
2022/11/19 07:22:03;;;;;;;10.85;5.70;;;;;;;;;;6255900;28;20214;-62
2022/11/19 07:25:06;;;;;;;10.35;5.70;;;;;;;;;;6265218;28;20049;-63
2022/11/19 07:28:08;;;;;;;10.73;6.47;;;;;;;;;;6267046;28;20056;-62
2022/11/19 07:31:10;;;;;;;7.70;5.07;;;;;;;;;;6256467;28;20053;-63
2022/11/19 07:34:11;;;;;;;10.82;5.43;;;;;;;;;;6259372;28;20053;-62
2022/11/19 07:37:15;;;;;;;9.18;5.63;;;;;;;;;;6258824;28;20510;-63
2022/11/19 07:40:16;;;;;;;8.88;5.63;;;;;;;;;;6258205;28;20057;-63
2022/11/19 07:43:18;;;;;;;10.82;6.28;;;;;;;;;;6264776;28;20057;-62
2022/11/19 07:46:20;;;;;;;10.00;6.05;;;;;;;;;;6261523;28;20332;-63
2022/11/19 07:49:21;;;;;;;12.45;6.60;;;;;;;;;;6264181;28;20041;-62
2022/11/19 07:52:24;;;;;;;10.05;6.65;;;;;;;;;;6262799;28;20080;-63
2022/11/19 07:55:26;;;;;;;14.70;8.10;;;;;;;;;;6261860;28;20276;-63
2022/11/19 07:58:28;;;;;;;12.13;7.40;;;;;;;;;;6260835;28;20057;-63
2022/11/19 08:01:30;;;;;;;12.75;8.25;;;;;;;;;;6260141;28;20052;-63
2022/11/19 08:04:32;;;;;;;12.30;7.63;;;;;;;;;;6265791;28;20057;-63
2022/11/19 08:07:36;;;;;;;12.07;7.60;;;;;;;;;;6270769;28;20079;-63
2022/11/19 08:10:38;;;;;;;12.82;8.07;;;;;;;;;;6268062;28;20137;-63
2022/11/19 08:13:40;;;;;;;14.02;8.73;;;;;;;;;;6271291;28;20056;-63
2022/11/19 08:20:01;;;;;;;16.05;8.50;;;;;;;;;;6268496;28;20080;-63
2022/11/19 08:23:04;;;;;;;12.88;8.38;;;;;;;;;;6268124;28;20045;-63
2022/11/19 08:26:07;;;;;;;15.15;8.98;;;;;;;;;;6268410;28;20068;-63
2022/11/19 08:29:09;;;;;;;18.50;9.90;;;;;;;;;;6271111;28;20049;-62
2022/11/19 08:32:10;;;;;;;15.00;9.57;;;;;;;;;;6267892;28;20475;-63
2022/11/19 08:35:12;;;;;;;16.17;10.30;;;;;;;;;;6269041;28;20044;-63
2022/11/19 08:38:15;;;;;;;14.50;10.20;;;;;;;;;;6265682;28;20304;-63
2022/11/19 08:44:36;;;;;;;16.60;10.82;;;;;;;;;;6267631;28;20041;-63
2022/11/19 08:47:37;;;;;;;17.98;11.48;;;;;;;;;;6268443;28;20333;-62
2022/11/19 08:50:41;;;;;;;20.48;11.43;;;;;;;;;;6269586;28;20368;-62
2022/11/19 08:53:45;;;;;;;133.70;21.52;;;;;;;;;;6266285;28;20064;-62
2022/11/19 08:56:47;;;;;;;62.70;16.55;;;;;;;;;;6268464;28;20142;-63
2022/11/19 08:59:49;;;;;;;30.85;14.13;;;;;;;;;;6268375;28;20053;-63
2022/11/19 09:02:50;;;;;;;25.25;13.38;;;;;;;;;;6268775;28;20107;-63
2022/11/19 09:05:58;;;;;;;21.23;12.80;;;;;;;;;;6266904;28;20056;-65
2022/11/19 09:09:01;;;;;;;19.58;12.23;;;;;;;;;;6267979;28;20049;-63
2022/11/19 09:12:03;;;;;;;17.50;12.30;;;;;;;;;;6269352;28;20083;-64
2022/11/19 09:15:07;;;;;;;19.55;12.65;;;;;;;;;;6270133;28;20045;-63
2022/11/19 09:18:08;;;;;;;18.00;12.55;;;;;;;;;;6268696;28;20045;-64
2022/11/19 09:21:11;;;;;;;24.75;12.98;;;;;;;;;;6265900;28;20060;-63
2022/11/19 09:24:14;;;;;;;19.55;12.80;;;;;;;;;;6269730;28;20356;-63
2022/11/19 09:27:15;;;;;;;18.42;12.32;;;;;;;;;;6268504;28;20053;-63
2022/11/19 09:30:17;;;;;;;18.63;12.57;;;;;;;;;;6265419;28;20057;-63
2022/11/19 09:33:19;;;;;;;20.50;12.75;;;;;;;;;;6269022;28;20343;-63
2022/11/19 09:36:21;;;;;;;18.52;12.40;;;;;;;;;;6268104;28;20088;-63
2022/11/19 09:39:24;;;;;;;21.75;12.70;;;;;;;;;;6269340;28;20045;-63
2022/11/19 09:42:31;;;;;;;18.95;12.38;;;;;;;;;;6265441;28;20052;-63
2022/11/19 09:45:43;;;;;;;16.88;11.68;;;;;;;;;;6267779;28;20091;-64
2022/11/19 09:48:45;;;;;;;17.48;11.70;;;;;;;;;;6266023;28;20089;-63
2022/11/19 09:51:53;;;;;;;19.90;13.68;;;;;;;;;;6265176;28;20045;-63
2022/11/19 09:54:57;;;;;;;19.30;12.95;;;;;;;;;;6265864;28;20056;-63
2022/11/19 09:58:00;;;;;;;19.63;12.23;;;;;;;;;;6266442;28;20436;-63
2022/11/19 10:01:02;;;;;;;20.27;13.35;;;;;;;;;;6268115;28;20041;-63
2022/11/19 10:04:04;;;;;;;16.52;10.40;;;;;;;;;;6265952;28;20071;-63
2022/11/19 10:07:11;;;;;;;13.40;8.63;;;;;;;;;;6267282;28;20049;-64
2022/11/19 10:10:24;;;;;;;13.60;8.32;;;;;;;;;;6270412;28;20044;-63
2022/11/19 10:13:39;;;;;;;13.13;7.75;;;;;;;;;;6263858;28;20106;-64
2022/11/19 10:16:50;;;;;;;10.80;7.40;;;;;;;;;;6266272;28;20057;-63
2022/11/19 10:20:06;;;;;;;11.95;7.30;;;;;;;;;;6265320;28;20057;-63
2022/11/19 10:23:15;;;;;;;10.20;6.88;;;;;;;;;;6265663;28;20055;-63
2022/11/19 10:26:19;;;;;;;13.15;8.40;;;;;;;;;;6263617;28;20094;-64
2022/11/19 10:29:23;;;;;;;13.65;9.10;;;;;;;;;;6265928;28;20049;-63
2022/11/19 10:32:30;;;;;;;;;;;;;;;;;;6265628;28;20064;-64
2022/11/19 10:35:36;;;;;;;14.27;8.10;;;;;;;;;;6265011;28;20019;-64
2022/11/19 10:38:45;;;;;;;13.45;9.18;;;;;;;;;;6258223;28;20053;-63
2022/11/19 10:41:50;;;;;;;12.57;9.00;;;;;;;;;;6265872;28;20060;-63
2022/11/19 10:44:54;;;;;;;15.30;10.02;;;;;;;;;;6260912;28;20064;-63
2022/11/19 10:47:59;;;;;;;15.48;10.00;;;;;;;;;;6266318;28;20060;-63
2022/11/19 10:51:01;;;;;;;15.20;10.45;;;;;;;;;;6266277;28;20049;-64
2022/11/19 10:54:05;;;;;;;14.02;8.98;;;;;;;;;;6265376;28;20067;-63
2022/11/19 10:57:12;;;;;;;13.48;8.50;;;;;;;;;;6260206;28;20049;-63
2022/11/19 11:00:16;;;;;;;14.05;8.32;;;;;;;;;;6273023;28;20053;-63
2022/11/19 11:03:23;;;;;;;12.32;8.30;;;;;;;;;;6268039;28;20064;-64
2022/11/19 11:06:25;;;;;;;12.98;9.32;;;;;;;;;;6268454;28;20045;-63
2022/11/19 11:09:32;;;;;;;12.43;8.23;;;;;;;;;;6267459;28;20045;-63
2022/11/19 11:15:56;;;;;;;12.13;7.77;;;;;;;;;;6269974;28;20062;-63
2022/11/19 11:18:59;;;;;;;12.57;8.65;;;;;;;;;;6265485;28;20064;-63
2022/11/19 11:22:01;;;;;;;14.33;9.07;;;;;;;;;;6275692;28;20060;-63
2022/11/19 11:25:03;;;;;;;13.43;8.27;;;;;;;;;;6272526;28;20378;-63
2022/11/19 11:28:08;;;;;;;13.18;8.57;;;;;;;;;;6276374;28;20061;-64
2022/11/19 11:31:10;;;;;;;13.40;9.30;;;;;;;;;;6269074;28;20210;-63
2022/11/19 11:34:15;;;;;;;12.43;8.90;;;;;;;;;;6272236;28;20349;-64
2022/11/19 11:37:16;;;;;;;16.35;9.38;;;;;;;;;;6270523;28;20394;-63
2022/11/19 11:40:19;;;;;;;14.57;10.45;;;;;;;;;;6271974;28;20113;-63
2022/11/19 11:43:22;;;;;;;14.48;9.55;;;;;;;;;;6272493;28;20102;-63
2022/11/19 11:46:23;;;;;;;14.15;10.13;;;;;;;;;;6268776;28;20214;-63
2022/11/19 11:49:28;;;;;;;17.52;9.98;;;;;;;;;;6271516;28;20059;-63
2022/11/19 11:52:34;;;;;;;17.15;9.98;;;;;;;;;;6268640;28;20069;-63
2022/11/19 11:55:37;;;;;;;13.50;9.32;;;;;;;;;;6268258;28;20124;-64
2022/11/19 11:58:40;;;;;;;14.82;9.25;;;;;;;;;;6270480;28;20049;-63
2022/11/19 12:01:42;;;;;;;13.88;9.00;;;;;;;;;;6262000;28;20057;-64
2022/11/19 12:04:44;;;;;;;13.73;9.77;;;;;;;;;;6264510;28;20395;-64
2022/11/19 12:08:00;;;;;;;12.95;9.80;;;;;;;;;;6268800;28;20061;-64
2022/11/19 12:11:05;;;;;;;14.15;9.50;;;;;;;;;;6270914;28;20355;-64
2022/11/19 12:14:09;;;;;;;12.57;9.00;;;;;;;;;;6269977;28;20049;-63
2022/11/19 12:17:18;;;;;;;12.95;9.50;;;;;;;;;;6268022;28;20282;-64
2022/11/19 12:20:24;;;;;;;15.13;9.73;;;;;;;;;;6268233;28;20051;-64
2022/11/19 12:23:34;;;;;;;14.27;10.25;;;;;;;;;;6270320;28;20056;-63
2022/11/19 12:26:43;;;;;;;13.32;9.63;;;;;;;;;;6267350;28;20079;-64
2022/11/19 12:29:53;;;;;;;13.15;9.50;;;;;;;;;;6268605;28;20044;-64
2022/11/19 12:33:10;;;;;;;14.60;10.00;;;;;;;;;;6272815;28;20400;-64
2022/11/19 12:36:17;;;;;;;15.25;10.73;;;;;;;;;;6271462;28;20049;-63
2022/11/19 12:39:30;;;;;;;15.32;10.45;;;;;;;;;;6268754;28;20351;-64
2022/11/19 12:42:44;;;;;;;16.73;10.25;;;;;;;;;;6269902;28;20049;-64
2022/11/19 12:45:56;;;;;;;16.67;10.95;;;;;;;;;;6266899;28;20438;-64
2022/11/19 12:49:08;;;;;;;15.75;10.88;;;;;;;;;;6269330;28;20309;-64
2022/11/19 12:52:24;;;;;;;17.17;10.85;;;;;;;;;;6266285;28;20076;-64
2022/11/19 12:55:32;;;;;;;16.05;10.80;;;;;;;;;;6260716;28;20056;-64
2022/11/19 12:58:43;;;;;;;16.55;10.95;;;;;;;;;;6264394;28;20126;-64
2022/11/19 13:01:50;;;;;;;20.13;12.25;;;;;;;;;;6267396;28;20275;-64
2022/11/19 13:04:55;;;;;;;18.05;13.35;;;;;;;;;;6267352;28;20049;-64
2022/11/19 13:07:58;;;;;;;21.33;15.07;;;;;;;;;;6267927;28;20067;-64
2022/11/19 13:11:05;;;;;;;18.67;12.93;;;;;;;;;;6269213;28;20076;-64
2022/11/19 13:14:11;;;;;;;21.15;13.45;;;;;;;;;;6258691;28;21358;-64
2022/11/19 13:17:18;;;;;;;20.63;14.30;;;;;;;;;;6268804;28;20065;-64
2022/11/19 13:20:25;;;;;;;19.48;13.18;;;;;;;;;;6266975;28;20157;-65
2022/11/19 13:23:29;;;;;;;18.15;12.57;;;;;;;;;;6258158;28;20156;-64
2022/11/19 13:26:32;;;;;;;21.17;13.35;;;;;;;;;;6264716;28;20037;-64
2022/11/19 13:29:37;;;;;;;20.90;13.13;;;;;;;;;;6268383;28;20053;-64
2022/11/19 13:32:44;;;;;;;20.90;13.80;;;;;;;;;;6265213;28;20049;-64
2022/11/19 13:35:48;;;;;;;20.02;13.75;;;;;;;;;;6268071;28;20055;-64
2022/11/19 13:38:52;;;;;;;22.08;14.60;;;;;;;;;;6263971;28;20049;-64
2022/11/19 13:45:14;;;;;;;25.42;15.27;;;;;;;;;;6231757;28;20116;-64
2022/11/19 13:48:23;;;;;;;22.13;14.68;;;;;;;;;;6266673;28;20049;-64
2022/11/19 13:51:29;;;;;;;22.33;15.00;;;;;;;;;;6258444;28;20061;-64
2022/11/19 13:54:34;;;;;;;22.63;14.65;;;;;;;;;;6266667;28;20059;-64
2022/11/19 13:57:39;;;;;;;26.30;15.80;;;;;;;;;;6266022;28;20077;-64
2022/11/19 14:00:42;;;;;;;21.70;14.70;;;;;;;;;;6264307;28;20053;-64
2022/11/19 14:04:01;;;;;;;23.90;14.30;;;;;;;;;;6264110;28;20149;-64
2022/11/19 14:07:26;;;;;;;23.50;15.40;;;;;;;;;;6264896;28;20049;-64
2022/11/19 14:10:32;;;;;;;24.40;15.38;;;;;;;;;;6257620;28;20064;-64
2022/11/19 14:13:44;;;;;;;26.48;15.80;;;;;;;;;;6265434;28;20099;-64
2022/11/19 14:27:18;;;;;;;24.30;15.48;;;;;;;;;;6264755;28;20040;-64
2022/11/19 14:30:21;;;;;;;23.63;15.05;;;;;;;;;;6263530;28;20049;-63
2022/11/19 14:33:43;;;;;;;27.98;16.17;;;;;;;;;;6267203;28;20052;-64
2022/11/19 14:36:47;;;;;;;22.77;15.13;;;;;;;;;;6262749;28;20333;-64
2022/11/19 14:39:55;;;;;;;25.45;16.00;;;;;;;;;;6262696;28;20333;-64
2022/11/19 14:46:48;;;;;;;24.50;15.70;;;;;;;;;;6265059;28;20053;-64
2022/11/19 14:49:50;;;;;;;27.80;16.98;;;;;;;;;;6266030;28;20317;-64
2022/11/19 14:52:55;;;;;;;24.05;15.82;;;;;;;;;;6256313;28;20279;-64
2022/11/19 14:56:09;;;;;;;24.80;15.45;;;;;;;;;;6253734;28;20061;-64
2022/11/19 14:59:19;;;;;;;24.88;16.13;;;;;;;;;;6262961;28;20321;-64
2022/11/19 15:02:24;;;;;;;28.02;17.02;;;;;;;;;;6262115;28;20045;-64
2022/11/19 15:05:30;;;;;;;26.67;18.13;;;;;;;;;;6265318;28;20334;-64
2022/11/19 15:08:49;;;;;;;27.40;17.63;;;;;;;;;;6265637;28;20053;-64
2022/11/19 15:12:00;;;;;;;25.70;16.60;;;;;;;;;;6252139;28;20095;-64
2022/11/19 15:15:31;;;;;;;25.92;18.02;;;;;;;;;;6264955;28;20049;-64
2022/11/19 15:19:20;;;;;;;26.08;16.83;;;;;;;;;;6263555;28;20053;-64
2022/11/19 15:22:33;;;;;;;28.45;17.92;;;;;;;;;;6265739;28;20041;-64
2022/11/19 15:25:45;;;;;;;29.20;19.67;;;;;;;;;;6255663;28;20049;-64
2022/11/19 15:28:57;;;;;;;30.27;19.77;;;;;;;;;;6263025;28;20163;-64
2022/11/19 15:32:11;;;;;;;30.13;19.50;;;;;;;;;;6264219;28;20107;-64
2022/11/19 15:35:52;;;;;;;30.75;19.45;;;;;;;;;;6262554;28;20060;-63
2022/11/19 15:38:59;;;;;;;31.63;18.83;;;;;;;;;;6172436;28;20051;-63
2022/11/19 15:42:07;;;;;;;28.83;18.05;;;;;;;;;;6172662;28;20058;-63
2022/11/19 15:45:15;;;;;;;32.35;18.13;;;;;;;;;;6173528;28;20051;-64
2022/11/19 15:48:20;;;;;;;29.33;18.48;;;;;;;;;;6174648;28;20113;-63
2022/11/19 15:51:22;;;;;;;32.53;19.70;;;;;;;;;;6174053;28;20340;-64
2022/11/19 15:54:27;;;;;;;33.60;19.52;;;;;;;;;;6166120;28;20106;-64
2022/11/19 15:57:31;;;;;;;29.38;19.15;;;;;;;;;;6173821;28;20062;-64
2022/11/19 16:00:43;;;;;;;29.65;18.77;;;;;;;;;;6163340;28;20051;-64
2022/11/19 16:03:45;;;;;;;26.65;18.00;;;;;;;;;;6173516;28;20102;-64
2022/11/19 16:06:50;;;;;;;27.48;17.83;;;;;;;;;;6178423;28;20083;-64
2022/11/19 16:09:52;;;;;;;29.13;18.40;;;;;;;;;;6180503;28;20639;-64
2022/11/19 16:19:41;;;;;;;29.30;18.52;;;;;;;;;;6267480;28;20057;-63
2022/11/19 16:22:45;;;;;;;30.25;18.35;;;;;;;;;;6267831;28;20232;-63
2022/11/19 16:25:47;;;;;;;32.15;19.40;;;;;;;;;;6267036;28;20698;-63
2022/11/19 16:28:50;;;;;;;28.80;18.27;;;;;;;;;;6267600;28;20045;-64
2022/11/19 16:31:56;;;;;;;30.67;17.97;;;;;;;;;;6269556;28;20061;-64
2022/11/19 16:35:09;;;;;;;29.77;18.30;;;;;;;;;;6267648;28;20057;-64
2022/11/19 16:38:16;;;;;;;32.13;19.02;;;;;;;;;;6266175;28;20057;-63
2022/11/19 16:44:41;;;;;;;31.80;19.30;;;;;;;;;;6269022;28;20288;-64
2022/11/19 16:47:51;;;;;;;30.00;19.08;;;;;;;;;;6267368;28;20059;-63
2022/11/19 16:50:53;;;;;;;32.53;19.50;;;;;;;;;;6267113;28;20146;-64
2022/11/19 16:53:54;;;;;;;29.50;18.90;;;;;;;;;;6264689;28;20136;-64
2022/11/19 16:56:56;;;;;;;31.67;19.60;;;;;;;;;;6269502;28;20057;-64
2022/11/19 17:00:01;;;;;;;28.88;19.02;;;;;;;;;;6267477;28;20046;-64
2022/11/19 17:03:16;;;;;;;31.23;18.98;;;;;;;;;;6267685;28;20161;-64
2022/11/19 17:06:22;;;;;;;26.70;18.33;;;;;;;;;;6267500;28;20082;-63
2022/11/19 17:09:40;;;;;;;30.65;18.48;;;;;;;;;;6269129;28;20048;-63
2022/11/19 17:12:50;;;;;;;30.60;19.02;;;;;;;;;;6268009;28;20052;-63
2022/11/19 17:15:53;;;;;;;31.55;19.83;;;;;;;;;;6266474;28;20088;-63
2022/11/19 17:18:55;;;;;;;29.35;20.27;;;;;;;;;;6267391;28;20037;-63
2022/11/19 17:21:58;;;;;;;31.45;19.20;;;;;;;;;;6265035;28;20279;-63
2022/11/19 17:25:03;;;;;;;28.27;19.15;;;;;;;;;;6266608;28;20068;-62
2022/11/19 17:28:04;;;;;;;31.13;19.27;;;;;;;;;;6265367;28;20053;-62
2022/11/19 17:31:15;;;;;;;31.08;19.17;;;;;;;;;;6268644;28;20080;-62
2022/11/19 17:34:23;;;;;;;31.63;19.52;;;;;;;;;;6267477;28;20048;-63
2022/11/19 17:37:25;;;;;;;31.17;18.65;;;;;;;;;;6266274;28;20068;-63
2022/11/19 17:40:26;;;;;;;31.02;18.48;;;;;;;;;;6264624;28;20044;-63
2022/11/19 17:46:52;;;;;;;33.00;18.80;;;;;;;;;;6269687;28;20048;-62
2022/11/19 17:49:53;;;;;;;34.15;20.42;;;;;;;;;;6264122;28;20103;-63
2022/11/19 17:52:55;;;;;;;33.30;19.80;;;;;;;;;;6264412;28;20059;-63
2022/11/19 17:55:57;;;;;;;35.00;21.88;;;;;;;;;;6265712;28;20251;-62
2022/11/19 17:58:59;;;;;;;31.80;19.98;;;;;;;;;;6263682;28;20096;-65
2022/11/19 18:02:02;;;;;;;34.08;20.73;;;;;;;;;;6265200;28;20056;-62
2022/11/19 18:05:13;;;;;;;36.33;20.35;;;;;;;;;;6267703;28;20074;-64
2022/11/19 18:08:15;;;;;;;30.58;19.42;;;;;;;;;;6269005;28;20045;-62
2022/11/19 18:11:18;;;;;;;30.30;19.23;;;;;;;;;;6265420;28;20064;-62
2022/11/19 18:14:20;;;;;;;32.13;20.35;;;;;;;;;;6269724;28;20045;-62
2022/11/19 18:17:23;;;;;;;34.63;20.60;;;;;;;;;;6263161;28;20052;-62
2022/11/19 18:20:24;;;;;;;35.67;20.20;;;;;;;;;;6262524;28;20043;-62
2022/11/19 18:23:26;;;;;;;31.30;19.83;;;;;;;;;;6266518;28;20044;-62
2022/11/19 18:26:28;;;;;;;33.40;19.92;;;;;;;;;;6268818;28;20053;-62
2022/11/19 18:29:30;;;;;;;36.60;20.83;;;;;;;;;;6265759;28;20501;-62
2022/11/19 18:32:33;;;;;;;31.77;20.55;;;;;;;;;;6266673;28;20092;-62
2022/11/19 18:35:35;;;;;;;35.40;21.77;;;;;;;;;;6265458;28;20049;-65
2022/11/19 18:38:37;;;;;;;36.00;20.90;;;;;;;;;;6268223;28;20084;-62
2022/11/19 18:41:38;;;;;;;33.80;20.30;;;;;;;;;;6265420;28;20053;-62
2022/11/19 18:44:42;;;;;;;34.72;20.70;;;;;;;;;;6262512;28;20122;-64
2022/11/19 18:47:45;;;;;;;34.72;21.38;;;;;;;;;;6268534;28;20053;-62
2022/11/19 18:50:46;;;;;;;33.30;21.27;;;;;;;;;;6263189;28;20069;-62
2022/11/19 18:53:48;;;;;;;37.40;21.65;;;;;;;;;;6264567;28;20101;-63
2022/11/19 18:56:50;;;;;;;40.45;22.70;;;;;;;;;;6267061;28;20063;-65
2022/11/19 18:59:52;;;;;;;33.60;21.02;;;;;;;;;;6265606;28;20059;-64
2022/11/19 19:02:55;;;;;;;34.00;20.52;;;;;;;;;;6264825;28;20053;-64
2022/11/19 19:05:56;;;;;;;32.72;20.73;;;;;;;;;;6266200;28;20057;-64